Main page
METAR-TAF:

METAR-TAF

Airports :

Kirkwall Airport

Kirkwall, Scotland

latitude: 58-57N, longitude: 002-54W, elevation: 21 m

Current weather observation

The report was made 22 minutes ago, at 04:20 UTC
Wind 10 kt from the North/Northeast
Temperature 8°C
Humidity 71%
Pressure 995 hPa
Visibility 10 km or more

METAR: EGPA 240420Z AUTO 03010KT 9999 NCD 08/03 Q0995

Time: 05:42 (04:42 UTC)

Forecast

The report was made 1 hour and 16 minutes ago, at 03:26 UTC
Forecast valid from 24 at 03 UTC to 24 at 12 UTC
Wind 9 kt from the North/Northeast
Visibility 10 km or more
Few clouds at a height of 3500 ft

TAF: EGPA 240326Z 2403/2412 02009KT 9999 FEW035

Weather observations and forecasts of more than 4000 airports (METAR and TAF reports).

The available stations are represented by yellow and red dots on the map.

Hover mouse over dot to see the name of the station.

Then click to see weather observations and forecasts.

To change the map : click on the green buttons with a black cross to zoom in, on the green button with a dash to zoom out, or on the green arrows for adjacent maps.


METAR-TAF: